sensor_id;sensor_type;location;lat;lon;timestamp;temperature;humidity
61912;DHT22;49973;52.084;5.412;2023-03-14T00:02:20;11.60;99.90
61912;DHT22;49973;52.084;5.412;2023-03-14T00:04:49;11.60;99.90
61912;DHT22;49973;52.084;5.412;2023-03-14T00:07:17;11.60;99.90
61912;DHT22;49973;52.084;5.412;2023-03-14T00:09:46;11.50;99.90
61912;DHT22;49973;52.084;5.412;2023-03-14T00:12:14;11.50;99.90
61912;DHT22;49973;52.084;5.412;2023-03-14T00:14:43;11.50;99.90
61912;DHT22;49973;52.084;5.412;2023-03-14T00:17:11;11.60;99.90
61912;DHT22;49973;52.084;5.412;2023-03-14T00:19:42;11.50;99.90
61912;DHT22;49973;52.084;5.412;2023-03-14T00:22:10;11.60;99.90
61912;DHT22;49973;52.084;5.412;2023-03-14T00:24:39;11.60;99.90
61912;DHT22;49973;52.084;5.412;2023-03-14T00:27:07;11.60;99.90
61912;DHT22;49973;52.084;5.412;2023-03-14T00:29:36;11.60;99.90
61912;DHT22;49973;52.084;5.412;2023-03-14T00:32:04;11.60;99.90
61912;DHT22;49973;52.084;5.412;2023-03-14T00:34:33;11.70;99.90
61912;DHT22;49973;52.084;5.412;2023-03-14T00:37:03;11.60;99.90
61912;DHT22;49973;52.084;5.412;2023-03-14T00:39:31;11.60;99.90
61912;DHT22;49973;52.084;5.412;2023-03-14T00:42:00;11.60;99.90
61912;DHT22;49973;52.084;5.412;2023-03-14T00:44:29;11.50;99.90
61912;DHT22;49973;52.084;5.412;2023-03-14T00:46:57;11.50;99.90
61912;DHT22;49973;52.084;5.412;2023-03-14T00:49:26;11.50;99.90
61912;DHT22;49973;52.084;5.412;2023-03-14T00:51:55;11.50;99.90
61912;DHT22;49973;52.084;5.412;2023-03-14T00:54:24;11.50;99.90
61912;DHT22;49973;52.084;5.412;2023-03-14T00:56:53;11.40;99.90
61912;DHT22;49973;52.084;5.412;2023-03-14T00:59:22;11.40;99.90
61912;DHT22;49973;52.084;5.412;2023-03-14T01:01:50;11.40;99.90
61912;DHT22;49973;52.084;5.412;2023-03-14T01:04:19;11.50;99.90
61912;DHT22;49973;52.084;5.412;2023-03-14T01:06:47;11.50;99.90
61912;DHT22;49973;52.084;5.412;2023-03-14T01:09:16;11.40;99.90
61912;DHT22;49973;52.084;5.412;2023-03-14T01:11:46;11.40;99.90
61912;DHT22;49973;52.084;5.412;2023-03-14T01:14:17;11.30;99.90
61912;DHT22;49973;52.084;5.412;2023-03-14T01:16:45;11.30;99.90
61912;DHT22;49973;52.084;5.412;2023-03-14T01:19:14;11.20;99.90
61912;DHT22;49973;52.084;5.412;2023-03-14T01:21:42;11.10;99.90
61912;DHT22;49973;52.084;5.412;2023-03-14T01:24:11;11.00;99.90
61912;DHT22;49973;52.084;5.412;2023-03-14T01:26:40;10.80;99.90
61912;DHT22;49973;52.084;5.412;2023-03-14T01:29:10;10.80;99.90
61912;DHT22;49973;52.084;5.412;2023-03-14T01:31:40;10.50;99.90
61912;DHT22;49973;52.084;5.412;2023-03-14T01:34:09;10.40;99.90
61912;DHT22;49973;52.084;5.412;2023-03-14T01:36:37;10.30;99.90
61912;DHT22;49973;52.084;5.412;2023-03-14T01:39:06;10.20;99.90
61912;DHT22;49973;52.084;5.412;2023-03-14T01:41:36;10.00;99.90
61912;DHT22;49973;52.084;5.412;2023-03-14T01:44:04;9.90;99.90
61912;DHT22;49973;52.084;5.412;2023-03-14T01:46:37;9.90;99.90
61912;DHT22;49973;52.084;5.412;2023-03-14T01:49:11;9.90;99.90
61912;DHT22;49973;52.084;5.412;2023-03-14T01:51:47;9.80;99.90
61912;DHT22;49973;52.084;5.412;2023-03-14T01:54:20;9.80;99.90
61912;DHT22;49973;52.084;5.412;2023-03-14T01:56:53;9.70;99.90
61912;DHT22;49973;52.084;5.412;2023-03-14T01:59:23;9.70;99.90
61912;DHT22;49973;52.084;5.412;2023-03-14T02:01:54;9.70;99.90
61912;DHT22;49973;52.084;5.412;2023-03-14T02:04:26;9.80;99.90
61912;DHT22;49973;52.084;5.412;2023-03-14T02:07:01;9.60;99.90
61912;DHT22;49973;52.084;5.412;2023-03-14T02:09:37;9.60;99.90
61912;DHT22;49973;52.084;5.412;2023-03-14T02:12:11;9.60;99.90
61912;DHT22;49973;52.084;5.412;2023-03-14T02:14:50;9.60;99.90
61912;DHT22;49973;52.084;5.412;2023-03-14T02:17:25;9.60;99.90
61912;DHT22;49973;52.084;5.412;2023-03-14T02:20:23;9.60;99.90
61912;DHT22;49973;52.084;5.412;2023-03-14T02:22:56;9.60;99.90
61912;DHT22;49973;52.084;5.412;2023-03-14T02:25:34;9.60;99.90
61912;DHT22;49973;52.084;5.412;2023-03-14T02:28:09;9.60;99.90
61912;DHT22;49973;52.084;5.412;2023-03-14T02:30:39;9.60;99.90
61912;DHT22;49973;52.084;5.412;2023-03-14T02:33:09;9.60;99.90
61912;DHT22;49973;52.084;5.412;2023-03-14T02:35:40;9.60;99.90
61912;DHT22;49973;52.084;5.412;2023-03-14T02:38:15;9.60;99.90
61912;DHT22;49973;52.084;5.412;2023-03-14T02:40:49;9.60;99.90
61912;DHT22;49973;52.084;5.412;2023-03-14T02:43:19;9.60;99.90
61912;DHT22;49973;52.084;5.412;2023-03-14T02:45:54;9.60;99.90
61912;DHT22;49973;52.084;5.412;2023-03-14T02:48:26;9.60;99.90
61912;DHT22;49973;52.084;5.412;2023-03-14T02:50:58;9.60;99.90
61912;DHT22;49973;52.084;5.412;2023-03-14T02:53:30;9.60;99.90
61912;DHT22;49973;52.084;5.412;2023-03-14T02:56:04;9.60;99.90
61912;DHT22;49973;52.084;5.412;2023-03-14T02:58:36;9.60;99.90
61912;DHT22;49973;52.084;5.412;2023-03-14T03:01:27;9.60;99.90
61912;DHT22;49973;52.084;5.412;2023-03-14T03:03:56;9.60;99.90
61912;DHT22;49973;52.084;5.412;2023-03-14T03:06:25;9.60;99.90
61912;DHT22;49973;52.084;5.412;2023-03-14T03:08:53;9.70;99.90
61912;DHT22;49973;52.084;5.412;2023-03-14T03:11:22;9.60;99.90
61912;DHT22;49973;52.084;5.412;2023-03-14T03:13:52;9.70;99.90
61912;DHT22;49973;52.084;5.412;2023-03-14T03:16:21;9.60;99.90
61912;DHT22;49973;52.084;5.412;2023-03-14T03:18:49;9.80;99.90
61912;DHT22;49973;52.084;5.412;2023-03-14T03:21:18;9.60;99.90
61912;DHT22;49973;52.084;5.412;2023-03-14T03:23:50;9.60;99.90
61912;DHT22;49973;52.084;5.412;2023-03-14T03:26:19;9.60;99.90
61912;DHT22;49973;52.084;5.412;2023-03-14T03:28:51;9.60;99.90
61912;DHT22;49973;52.084;5.412;2023-03-14T03:31:21;9.60;99.90
61912;DHT22;49973;52.084;5.412;2023-03-14T03:33:50;9.70;99.90
61912;DHT22;49973;52.084;5.412;2023-03-14T03:36:21;9.70;99.90
61912;DHT22;49973;52.084;5.412;2023-03-14T03:38:49;9.70;99.90
61912;DHT22;49973;52.084;5.412;2023-03-14T03:41:18;9.70;99.90
61912;DHT22;49973;52.084;5.412;2023-03-14T03:43:48;9.70;99.90
61912;DHT22;49973;52.084;5.412;2023-03-14T03:46:18;9.70;99.90
61912;DHT22;49973;52.084;5.412;2023-03-14T03:48:47;9.70;99.90
61912;DHT22;49973;52.084;5.412;2023-03-14T03:51:16;9.70;99.90
61912;DHT22;49973;52.084;5.412;2023-03-14T03:53:44;9.70;99.90
61912;DHT22;49973;52.084;5.412;2023-03-14T03:56:18;9.70;99.90
61912;DHT22;49973;52.084;5.412;2023-03-14T03:58:46;9.70;99.90
61912;DHT22;49973;52.084;5.412;2023-03-14T04:01:15;9.80;99.90
61912;DHT22;49973;52.084;5.412;2023-03-14T04:03:49;9.80;99.90
61912;DHT22;49973;52.084;5.412;2023-03-14T04:06:18;9.80;99.90
61912;DHT22;49973;52.084;5.412;2023-03-14T04:08:49;9.90;99.90
61912;DHT22;49973;52.084;5.412;2023-03-14T04:11:38;9.80;99.90
61912;DHT22;49973;52.084;5.412;2023-03-14T04:14:22;9.90;99.90
61912;DHT22;49973;52.084;5.412;2023-03-14T04:17:09;9.90;99.90
61912;DHT22;49973;52.084;5.412;2023-03-14T04:19:40;9.90;99.90
61912;DHT22;49973;52.084;5.412;2023-03-14T04:22:10;10.00;99.90
61912;DHT22;49973;52.084;5.412;2023-03-14T04:24:46;10.00;99.90
61912;DHT22;49973;52.084;5.412;2023-03-14T04:27:15;10.00;99.90
61912;DHT22;49973;52.084;5.412;2023-03-14T04:29:45;10.10;99.90
61912;DHT22;49973;52.084;5.412;2023-03-14T04:32:16;10.10;99.90
61912;DHT22;49973;52.084;5.412;2023-03-14T04:34:46;10.10;99.90
61912;DHT22;49973;52.084;5.412;2023-03-14T04:37:15;10.10;99.90
61912;DHT22;49973;52.084;5.412;2023-03-14T04:39:44;10.10;99.90
61912;DHT22;49973;52.084;5.412;2023-03-14T04:42:17;10.10;99.90
61912;DHT22;49973;52.084;5.412;2023-03-14T04:44:46;10.20;99.90
61912;DHT22;49973;52.084;5.412;2023-03-14T04:47:17;10.20;99.90
61912;DHT22;49973;52.084;5.412;2023-03-14T04:49:49;10.20;99.90
61912;DHT22;49973;52.084;5.412;2023-03-14T04:52:18;10.20;99.90
61912;DHT22;49973;52.084;5.412;2023-03-14T04:54:47;10.20;99.90
61912;DHT22;49973;52.084;5.412;2023-03-14T04:57:16;10.20;99.90
61912;DHT22;49973;52.084;5.412;2023-03-14T04:59:46;10.30;99.90
61912;DHT22;49973;52.084;5.412;2023-03-14T05:02:26;10.30;99.90
61912;DHT22;49973;52.084;5.412;2023-03-14T05:05:18;10.30;99.90
61912;DHT22;49973;52.084;5.412;2023-03-14T05:08:06;10.30;99.90
61912;DHT22;49973;52.084;5.412;2023-03-14T05:10:57;10.30;99.90
61912;DHT22;49973;52.084;5.412;2023-03-14T05:13:41;10.20;99.90
61912;DHT22;49973;52.084;5.412;2023-03-14T05:16:15;10.20;99.90
61912;DHT22;49973;52.084;5.412;2023-03-14T05:19:02;10.20;99.90
61912;DHT22;49973;52.084;5.412;2023-03-14T05:21:50;10.10;99.90
61912;DHT22;49973;52.084;5.412;2023-03-14T05:24:48;10.00;99.90
61912;DHT22;49973;52.084;5.412;2023-03-14T05:27:35;9.90;99.90
61912;DHT22;49973;52.084;5.412;2023-03-14T05:30:27;9.90;99.90
61912;DHT22;49973;52.084;5.412;2023-03-14T05:33:16;9.80;99.90
61912;DHT22;49973;52.084;5.412;2023-03-14T05:36:05;9.70;99.90
61912;DHT22;49973;52.084;5.412;2023-03-14T05:38:59;9.60;99.90
61912;DHT22;49973;52.084;5.412;2023-03-14T05:41:38;9.50;99.90
61912;DHT22;49973;52.084;5.412;2023-03-14T05:44:16;9.50;99.90
61912;DHT22;49973;52.084;5.412;2023-03-14T05:47:01;9.50;99.90
61912;DHT22;49973;52.084;5.412;2023-03-14T05:49:38;9.40;99.90
61912;DHT22;49973;52.084;5.412;2023-03-14T05:52:25;9.40;99.90
61912;DHT22;49973;52.084;5.412;2023-03-14T05:55:07;9.40;99.90
61912;DHT22;49973;52.084;5.412;2023-03-14T05:57:47;9.30;99.90
61912;DHT22;49973;52.084;5.412;2023-03-14T06:00:34;9.30;99.90
61912;DHT22;49973;52.084;5.412;2023-03-14T06:03:16;9.30;99.90
61912;DHT22;49973;52.084;5.412;2023-03-14T06:05:49;9.30;99.90
61912;DHT22;49973;52.084;5.412;2023-03-14T06:08:19;9.30;99.90
61912;DHT22;49973;52.084;5.412;2023-03-14T06:10:50;9.30;99.90
61912;DHT22;49973;52.084;5.412;2023-03-14T06:13:20;9.30;99.90
61912;DHT22;49973;52.084;5.412;2023-03-14T06:15:48;9.30;99.90
61912;DHT22;49973;52.084;5.412;2023-03-14T06:18:17;9.30;99.90
61912;DHT22;49973;52.084;5.412;2023-03-14T06:20:46;9.30;99.90
61912;DHT22;49973;52.084;5.412;2023-03-14T06:23:23;9.30;99.90
61912;DHT22;49973;52.084;5.412;2023-03-14T06:25:54;9.30;99.90
61912;DHT22;49973;52.084;5.412;2023-03-14T06:28:24;9.30;99.90
61912;DHT22;49973;52.084;5.412;2023-03-14T06:30:56;9.40;99.90
61912;DHT22;49973;52.084;5.412;2023-03-14T06:33:30;9.40;99.90
61912;DHT22;49973;52.084;5.412;2023-03-14T06:35:59;9.40;99.90
61912;DHT22;49973;52.084;5.412;2023-03-14T06:38:29;9.40;99.90
61912;DHT22;49973;52.084;5.412;2023-03-14T06:41:04;9.40;99.90
61912;DHT22;49973;52.084;5.412;2023-03-14T06:43:41;9.40;99.90
61912;DHT22;49973;52.084;5.412;2023-03-14T06:46:10;9.40;99.90
61912;DHT22;49973;52.084;5.412;2023-03-14T06:48:40;9.40;99.90
61912;DHT22;49973;52.084;5.412;2023-03-14T06:51:09;9.30;99.90
61912;DHT22;49973;52.084;5.412;2023-03-14T06:53:38;9.20;99.90
61912;DHT22;49973;52.084;5.412;2023-03-14T06:56:09;9.10;99.90
61912;DHT22;49973;52.084;5.412;2023-03-14T06:58:37;9.00;99.90
61912;DHT22;49973;52.084;5.412;2023-03-14T07:01:20;8.80;99.90
61912;DHT22;49973;52.084;5.412;2023-03-14T07:03:49;8.70;99.90
61912;DHT22;49973;52.084;5.412;2023-03-14T07:06:18;8.50;99.90
61912;DHT22;49973;52.084;5.412;2023-03-14T07:08:48;8.40;99.90
61912;DHT22;49973;52.084;5.412;2023-03-14T07:11:18;8.30;99.90
61912;DHT22;49973;52.084;5.412;2023-03-14T07:13:47;8.20;99.90
61912;DHT22;49973;52.084;5.412;2023-03-14T07:16:16;8.20;99.90
61912;DHT22;49973;52.084;5.412;2023-03-14T07:18:44;8.10;99.90
61912;DHT22;49973;52.084;5.412;2023-03-14T07:21:13;8.10;99.90
61912;DHT22;49973;52.084;5.412;2023-03-14T07:23:41;8.00;99.90
61912;DHT22;49973;52.084;5.412;2023-03-14T07:26:11;8.00;99.90
61912;DHT22;49973;52.084;5.412;2023-03-14T07:28:47;8.00;99.90
61912;DHT22;49973;52.084;5.412;2023-03-14T07:31:18;8.00;99.90
61912;DHT22;49973;52.084;5.412;2023-03-14T07:33:48;8.00;99.90
61912;DHT22;49973;52.084;5.412;2023-03-14T07:36:17;8.00;99.90
61912;DHT22;49973;52.084;5.412;2023-03-14T07:38:47;8.00;99.90
61912;DHT22;49973;52.084;5.412;2023-03-14T07:41:34;8.00;99.90
61912;DHT22;49973;52.084;5.412;2023-03-14T07:44:23;8.00;99.90
61912;DHT22;49973;52.084;5.412;2023-03-14T07:46:51;7.90;99.90
61912;DHT22;49973;52.084;5.412;2023-03-14T07:49:20;7.90;99.90
61912;DHT22;49973;52.084;5.412;2023-03-14T07:51:49;7.90;99.90
61912;DHT22;49973;52.084;5.412;2023-03-14T07:54:17;7.90;99.90
61912;DHT22;49973;52.084;5.412;2023-03-14T07:56:47;7.80;99.90
61912;DHT22;49973;52.084;5.412;2023-03-14T07:59:15;7.80;99.90
61912;DHT22;49973;52.084;5.412;2023-03-14T08:01:45;7.80;99.90
61912;DHT22;49973;52.084;5.412;2023-03-14T08:04:14;7.80;99.90
61912;DHT22;49973;52.084;5.412;2023-03-14T08:06:43;7.70;99.90
61912;DHT22;49973;52.084;5.412;2023-03-14T08:09:11;7.70;99.90
61912;DHT22;49973;52.084;5.412;2023-03-14T08:11:39;7.70;99.90
61912;DHT22;49973;52.084;5.412;2023-03-14T08:14:08;7.70;99.90
61912;DHT22;49973;52.084;5.412;2023-03-14T08:16:38;7.60;99.90
61912;DHT22;49973;52.084;5.412;2023-03-14T08:19:08;7.40;99.90
61912;DHT22;49973;52.084;5.412;2023-03-14T08:21:36;7.20;99.90
61912;DHT22;49973;52.084;5.412;2023-03-14T08:24:05;7.00;99.90
61912;DHT22;49973;52.084;5.412;2023-03-14T08:26:34;6.80;99.90
61912;DHT22;49973;52.084;5.412;2023-03-14T08:29:02;6.60;99.90
61912;DHT22;49973;52.084;5.412;2023-03-14T08:31:32;6.60;99.90
61912;DHT22;49973;52.084;5.412;2023-03-14T08:34:00;6.30;99.90
61912;DHT22;49973;52.084;5.412;2023-03-14T08:36:30;6.30;99.90
61912;DHT22;49973;52.084;5.412;2023-03-14T08:38:59;6.40;99.90
61912;DHT22;49973;52.084;5.412;2023-03-14T08:41:27;6.20;99.90
61912;DHT22;49973;52.084;5.412;2023-03-14T08:43:56;6.20;99.90
61912;DHT22;49973;52.084;5.412;2023-03-14T08:46:25;6.20;99.90
61912;DHT22;49973;52.084;5.412;2023-03-14T08:48:53;6.10;99.90
61912;DHT22;49973;52.084;5.412;2023-03-14T08:51:22;6.10;99.90
61912;DHT22;49973;52.084;5.412;2023-03-14T08:53:51;6.20;99.90
61912;DHT22;49973;52.084;5.412;2023-03-14T08:56:20;6.20;99.90
61912;DHT22;49973;52.084;5.412;2023-03-14T08:58:52;6.30;99.90
61912;DHT22;49973;52.084;5.412;2023-03-14T09:01:20;6.40;99.90
61912;DHT22;49973;52.084;5.412;2023-03-14T09:03:51;6.50;99.90
61912;DHT22;49973;52.084;5.412;2023-03-14T09:06:19;6.50;99.90
61912;DHT22;49973;52.084;5.412;2023-03-14T09:08:48;6.50;99.90
61912;DHT22;49973;52.084;5.412;2023-03-14T09:11:18;6.50;99.90
61912;DHT22;49973;52.084;5.412;2023-03-14T09:13:46;6.60;99.90
61912;DHT22;49973;52.084;5.412;2023-03-14T09:16:15;6.60;99.90
61912;DHT22;49973;52.084;5.412;2023-03-14T09:18:44;6.70;99.90
61912;DHT22;49973;52.084;5.412;2023-03-14T09:21:13;6.70;99.90
61912;DHT22;49973;52.084;5.412;2023-03-14T09:23:41;6.80;99.90
61912;DHT22;49973;52.084;5.412;2023-03-14T09:26:13;6.80;99.90
61912;DHT22;49973;52.084;5.412;2023-03-14T09:28:43;6.90;99.90
61912;DHT22;49973;52.084;5.412;2023-03-14T09:31:11;7.00;99.90
61912;DHT22;49973;52.084;5.412;2023-03-14T09:33:40;6.90;99.90
61912;DHT22;49973;52.084;5.412;2023-03-14T09:36:09;6.80;99.90
61912;DHT22;49973;52.084;5.412;2023-03-14T09:38:37;6.70;99.90
61912;DHT22;49973;52.084;5.412;2023-03-14T09:41:14;6.60;99.90
61912;DHT22;49973;52.084;5.412;2023-03-14T09:43:46;6.60;99.90
61912;DHT22;49973;52.084;5.412;2023-03-14T09:46:18;6.60;99.90
61912;DHT22;49973;52.084;5.412;2023-03-14T09:48:46;6.60;99.90
61912;DHT22;49973;52.084;5.412;2023-03-14T09:51:17;6.60;99.90
61912;DHT22;49973;52.084;5.412;2023-03-14T09:53:50;6.80;99.90
61912;DHT22;49973;52.084;5.412;2023-03-14T09:56:20;6.80;99.90
61912;DHT22;49973;52.084;5.412;2023-03-14T09:58:53;6.80;99.90
61912;DHT22;49973;52.084;5.412;2023-03-14T10:01:25;6.90;99.90
61912;DHT22;49973;52.084;5.412;2023-03-14T10:04:01;7.00;99.90
61912;DHT22;49973;52.084;5.412;2023-03-14T10:06:31;7.20;99.90
61912;DHT22;49973;52.084;5.412;2023-03-14T10:08:59;7.30;99.90
61912;DHT22;49973;52.084;5.412;2023-03-14T10:11:30;7.50;99.90
61912;DHT22;49973;52.084;5.412;2023-03-14T10:14:08;7.50;99.90
61912;DHT22;49973;52.084;5.412;2023-03-14T10:16:41;7.60;99.90
61912;DHT22;49973;52.084;5.412;2023-03-14T10:19:12;7.70;99.90
61912;DHT22;49973;52.084;5.412;2023-03-14T10:21:42;7.70;99.90
61912;DHT22;49973;52.084;5.412;2023-03-14T10:24:20;7.60;99.90
61912;DHT22;49973;52.084;5.412;2023-03-14T10:26:52;7.50;99.90
61912;DHT22;49973;52.084;5.412;2023-03-14T10:29:22;7.40;99.90
61912;DHT22;49973;52.084;5.412;2023-03-14T10:31:52;7.20;99.90
61912;DHT22;49973;52.084;5.412;2023-03-14T10:34:24;7.20;99.90
61912;DHT22;49973;52.084;5.412;2023-03-14T10:36:54;7.20;99.90
61912;DHT22;49973;52.084;5.412;2023-03-14T10:39:30;7.20;99.90
61912;DHT22;49973;52.084;5.412;2023-03-14T10:42:05;7.20;99.90
61912;DHT22;49973;52.084;5.412;2023-03-14T10:44:42;7.40;99.90
61912;DHT22;49973;52.084;5.412;2023-03-14T10:47:18;7.40;99.90
61912;DHT22;49973;52.084;5.412;2023-03-14T10:49:47;7.40;99.90
61912;DHT22;49973;52.084;5.412;2023-03-14T10:52:20;7.30;99.90
61912;DHT22;49973;52.084;5.412;2023-03-14T10:55:08;7.30;99.90
61912;DHT22;49973;52.084;5.412;2023-03-14T10:57:38;7.20;99.90
61912;DHT22;49973;52.084;5.412;2023-03-14T11:00:15;7.10;99.90
61912;DHT22;49973;52.084;5.412;2023-03-14T11:03:03;6.90;99.90
61912;DHT22;49973;52.084;5.412;2023-03-14T11:05:40;6.70;99.90
61912;DHT22;49973;52.084;5.412;2023-03-14T11:08:14;6.50;99.90
61912;DHT22;49973;52.084;5.412;2023-03-14T11:10:46;6.40;99.90
61912;DHT22;49973;52.084;5.412;2023-03-14T11:13:20;6.30;99.90
61912;DHT22;49973;52.084;5.412;2023-03-14T11:15:58;6.30;99.90
61912;DHT22;49973;52.084;5.412;2023-03-14T11:18:53;6.30;99.90
61912;DHT22;49973;52.084;5.412;2023-03-14T11:21:29;6.50;99.90
61912;DHT22;49973;52.084;5.412;2023-03-14T11:24:12;6.60;99.90
61912;DHT22;49973;52.084;5.412;2023-03-14T11:26:46;6.70;99.90
61912;DHT22;49973;52.084;5.412;2023-03-14T11:29:21;6.80;99.90
61912;DHT22;49973;52.084;5.412;2023-03-14T11:32:00;7.10;99.90
61912;DHT22;49973;52.084;5.412;2023-03-14T11:34:38;7.50;99.90
61912;DHT22;49973;52.084;5.412;2023-03-14T11:37:14;7.90;99.90
61912;DHT22;49973;52.084;5.412;2023-03-14T11:39:51;8.10;99.90
61912;DHT22;49973;52.084;5.412;2023-03-14T11:42:24;8.40;99.90
61912;DHT22;49973;52.084;5.412;2023-03-14T11:44:54;8.60;99.90
61912;DHT22;49973;52.084;5.412;2023-03-14T11:47:28;8.60;99.90
61912;DHT22;49973;52.084;5.412;2023-03-14T11:50:01;8.60;99.90
61912;DHT22;49973;52.084;5.412;2023-03-14T11:52:33;8.80;99.90
61912;DHT22;49973;52.084;5.412;2023-03-14T11:55:07;8.80;99.90
61912;DHT22;49973;52.084;5.412;2023-03-14T11:57:39;9.00;99.90
61912;DHT22;49973;52.084;5.412;2023-03-14T12:00:15;9.10;99.90
61912;DHT22;49973;52.084;5.412;2023-03-14T12:02:50;9.30;99.90
61912;DHT22;49973;52.084;5.412;2023-03-14T12:05:37;9.50;99.90
61912;DHT22;49973;52.084;5.412;2023-03-14T12:08:30;9.80;99.90
61912;DHT22;49973;52.084;5.412;2023-03-14T12:11:04;10.10;99.90
61912;DHT22;49973;52.084;5.412;2023-03-14T12:13:37;10.30;99.90
61912;DHT22;49973;52.084;5.412;2023-03-14T12:16:09;10.40;99.90
61912;DHT22;49973;52.084;5.412;2023-03-14T12:18:49;10.60;99.90
61912;DHT22;49973;52.084;5.412;2023-03-14T12:21:19;10.80;99.90
61912;DHT22;49973;52.084;5.412;2023-03-14T12:23:49;10.80;99.90
61912;DHT22;49973;52.084;5.412;2023-03-14T12:26:21;10.90;99.90
61912;DHT22;49973;52.084;5.412;2023-03-14T12:28:51;11.10;99.90
61912;DHT22;49973;52.084;5.412;2023-03-14T12:31:41;11.20;99.90
61912;DHT22;49973;52.084;5.412;2023-03-14T12:34:33;11.00;99.90
61912;DHT22;49973;52.084;5.412;2023-03-14T12:37:14;10.80;99.90
61912;DHT22;49973;52.084;5.412;2023-03-14T12:39:53;10.50;99.90
61912;DHT22;49973;52.084;5.412;2023-03-14T12:42:43;10.30;99.90
61912;DHT22;49973;52.084;5.412;2023-03-14T12:45:28;10.30;99.90
61912;DHT22;49973;52.084;5.412;2023-03-14T12:48:03;10.50;99.90
61912;DHT22;49973;52.084;5.412;2023-03-14T12:50:42;10.40;99.90
61912;DHT22;49973;52.084;5.412;2023-03-14T12:56:31;10.40;99.90
61912;DHT22;49973;52.084;5.412;2023-03-14T12:59:17;10.20;99.90
61912;DHT22;49973;52.084;5.412;2023-03-14T13:01:55;10.20;99.90
61912;DHT22;49973;52.084;5.412;2023-03-14T13:04:29;10.30;99.90
61912;DHT22;49973;52.084;5.412;2023-03-14T13:07:12;10.40;99.90
61912;DHT22;49973;52.084;5.412;2023-03-14T13:10:03;10.30;99.90
61912;DHT22;49973;52.084;5.412;2023-03-14T13:12:39;10.30;99.90
61912;DHT22;49973;52.084;5.412;2023-03-14T13:15:18;10.40;99.90
61912;DHT22;49973;52.084;5.412;2023-03-14T13:17:48;10.60;99.90
61912;DHT22;49973;52.084;5.412;2023-03-14T13:20:21;10.80;99.90
61912;DHT22;49973;52.084;5.412;2023-03-14T13:22:52;11.00;99.90
61912;DHT22;49973;52.084;5.412;2023-03-14T13:25:21;11.00;99.90
61912;DHT22;49973;52.084;5.412;2023-03-14T13:27:52;11.00;99.90
61912;DHT22;49973;52.084;5.412;2023-03-14T13:30:25;10.90;99.90
61912;DHT22;49973;52.084;5.412;2023-03-14T13:32:55;10.80;99.90
61912;DHT22;49973;52.084;5.412;2023-03-14T13:35:26;10.80;99.90
61912;DHT22;49973;52.084;5.412;2023-03-14T13:37:59;10.70;99.90
61912;DHT22;49973;52.084;5.412;2023-03-14T13:40:38;10.60;99.90
61912;DHT22;49973;52.084;5.412;2023-03-14T13:43:19;10.50;99.90
61912;DHT22;49973;52.084;5.412;2023-03-14T13:45:53;10.60;99.90
61912;DHT22;49973;52.084;5.412;2023-03-14T13:48:26;10.70;99.90
61912;DHT22;49973;52.084;5.412;2023-03-14T13:50:59;11.00;99.90
61912;DHT22;49973;52.084;5.412;2023-03-14T13:53:30;11.20;99.90
61912;DHT22;49973;52.084;5.412;2023-03-14T13:56:02;11.30;99.90
61912;DHT22;49973;52.084;5.412;2023-03-14T13:58:31;11.20;99.90
61912;DHT22;49973;52.084;5.412;2023-03-14T14:01:04;11.10;99.90
61912;DHT22;49973;52.084;5.412;2023-03-14T14:03:37;11.10;99.90
61912;DHT22;49973;52.084;5.412;2023-03-14T14:06:10;10.80;99.90
61912;DHT22;49973;52.084;5.412;2023-03-14T14:08:46;10.60;99.90
61912;DHT22;49973;52.084;5.412;2023-03-14T14:11:22;10.40;99.90
61912;DHT22;49973;52.084;5.412;2023-03-14T14:14:15;10.20;99.90
61912;DHT22;49973;52.084;5.412;2023-03-14T14:16:47;9.90;99.90
61912;DHT22;49973;52.084;5.412;2023-03-14T14:19:22;9.80;99.90
61912;DHT22;49973;52.084;5.412;2023-03-14T14:21:52;9.70;99.90
61912;DHT22;49973;52.084;5.412;2023-03-14T14:24:24;9.60;99.90
61912;DHT22;49973;52.084;5.412;2023-03-14T14:27:00;9.40;99.90
61912;DHT22;49973;52.084;5.412;2023-03-14T14:29:31;9.20;99.90
61912;DHT22;49973;52.084;5.412;2023-03-14T14:32:01;9.00;99.90
61912;DHT22;49973;52.084;5.412;2023-03-14T14:34:38;8.90;99.90
61912;DHT22;49973;52.084;5.412;2023-03-14T14:37:21;8.70;99.90
61912;DHT22;49973;52.084;5.412;2023-03-14T14:39:56;8.60;99.90
61912;DHT22;49973;52.084;5.412;2023-03-14T14:42:27;8.50;99.90
61912;DHT22;49973;52.084;5.412;2023-03-14T14:44:57;8.50;99.90
61912;DHT22;49973;52.084;5.412;2023-03-14T14:47:28;8.30;99.90
61912;DHT22;49973;52.084;5.412;2023-03-14T14:50:00;8.30;99.90
61912;DHT22;49973;52.084;5.412;2023-03-14T14:52:37;8.20;99.90
61912;DHT22;49973;52.084;5.412;2023-03-14T14:55:17;8.20;99.90
61912;DHT22;49973;52.084;5.412;2023-03-14T14:57:51;8.10;99.90
61912;DHT22;49973;52.084;5.412;2023-03-14T15:00:22;8.00;99.90
61912;DHT22;49973;52.084;5.412;2023-03-14T15:02:52;7.90;99.90
61912;DHT22;49973;52.084;5.412;2023-03-14T15:05:24;8.10;99.90
61912;DHT22;49973;52.084;5.412;2023-03-14T15:07:53;7.90;99.90
61912;DHT22;49973;52.084;5.412;2023-03-14T15:10:24;7.90;99.90
61912;DHT22;49973;52.084;5.412;2023-03-14T15:12:53;8.00;99.90
61912;DHT22;49973;52.084;5.412;2023-03-14T15:15:22;8.00;99.90
61912;DHT22;49973;52.084;5.412;2023-03-14T15:17:51;7.90;99.90
61912;DHT22;49973;52.084;5.412;2023-03-14T15:20:19;8.00;99.90
61912;DHT22;49973;52.084;5.412;2023-03-14T15:22:51;8.10;99.90
61912;DHT22;49973;52.084;5.412;2023-03-14T15:25:20;8.00;99.90
61912;DHT22;49973;52.084;5.412;2023-03-14T15:28:14;8.00;99.90
61912;DHT22;49973;52.084;5.412;2023-03-14T15:30:47;8.00;99.90
61912;DHT22;49973;52.084;5.412;2023-03-14T15:33:17;8.00;99.90
61912;DHT22;49973;52.084;5.412;2023-03-14T15:35:47;8.00;99.90
61912;DHT22;49973;52.084;5.412;2023-03-14T15:38:18;8.00;99.90
61912;DHT22;49973;52.084;5.412;2023-03-14T15:40:48;8.00;99.90
61912;DHT22;49973;52.084;5.412;2023-03-14T15:43:19;8.00;99.90
61912;DHT22;49973;52.084;5.412;2023-03-14T15:45:48;8.10;99.90
61912;DHT22;49973;52.084;5.412;2023-03-14T15:48:19;8.00;99.90
61912;DHT22;49973;52.084;5.412;2023-03-14T15:50:48;8.00;99.90
61912;DHT22;49973;52.084;5.412;2023-03-14T15:53:17;8.10;99.90
61912;DHT22;49973;52.084;5.412;2023-03-14T15:55:46;7.80;99.90
61912;DHT22;49973;52.084;5.412;2023-03-14T15:58:16;7.80;99.90
61912;DHT22;49973;52.084;5.412;2023-03-14T16:00:49;7.70;99.90
61912;DHT22;49973;52.084;5.412;2023-03-14T16:03:19;7.60;99.90
61912;DHT22;49973;52.084;5.412;2023-03-14T16:05:47;7.50;99.90
61912;DHT22;49973;52.084;5.412;2023-03-14T16:08:16;7.40;99.90
61912;DHT22;49973;52.084;5.412;2023-03-14T16:10:45;7.50;99.90
61912;DHT22;49973;52.084;5.412;2023-03-14T16:13:14;7.40;99.90
61912;DHT22;49973;52.084;5.412;2023-03-14T16:15:53;7.40;99.90
61912;DHT22;49973;52.084;5.412;2023-03-14T16:18:22;7.40;99.90
61912;DHT22;49973;52.084;5.412;2023-03-14T16:20:52;7.40;99.90
61912;DHT22;49973;52.084;5.412;2023-03-14T16:23:21;7.40;99.90